Impacts METAR Board
IDs:

KLAX - Los Angeles Intl, CA, US

Updated at: 0000 UTC 31 May 2020
Potential Impact None Slight Moderate High
Time 30/12Z 30/13Z 30/14Z 30/15Z 30/16Z 30/17Z 30/18Z 30/19Z 30/20Z 30/21Z 30/22Z 30/23Z 31/00Z
Temp61 60 62 64 64 65 68 70 70 70 69 68 67
Dewpt54 52 53 56 54 54 52 54 53 54 57 57 55
Altim29.97 29.97 29.99 30.00 30.00 30.00 30.00 29.99 29.98 29.97 29.98 29.96 29.95
VIS10 10 10 10 10 10 10 10 10 10 10 10 10
CIG29 -- -- 200 24 200 -- -- -- -- 200 200 200
CoverBKNSCTSCTBKNBKNBKNSCTSCTSCTSCTBKNBKNBKN
FltCatMVFRVFRVFRVFRMVFRVFRVFRVFRVFRVFRVFRVFRVFR
WX--------------------------
WDir2602602900260240270260260260260250240
WSpd9 4 3 5 4 7 8 8 12 13 17 17 17
WGst-- -- -- -- -- -- -- -- -- -- -- -- --
Raw hourly METARs
KLAX 301153Z 26009KT 10SM BKN029 16/12 A2997 RMK AO2 SLP148 T01610122 10172 20161 56007
KLAX 301253Z 26004KT 10SM SCT030 SCT200 16/11 A2997 RMK AO2 SLP148 T01560111
KLAX 301353Z 29003KT 10SM FEW024 SCT035 SCT200 17/12 A2999 RMK AO2 SLP153 T01670117
KLAX 301453Z VRB05KT 10SM SCT025 SCT040 BKN200 18/13 A3000 RMK AO2 SLP157 T01780133 53009
KLAX 301553Z 26004KT 10SM BKN024 BKN200 18/12 A3000 RMK AO2 SLP159 T01780122
KLAX 301653Z 24007KT 10SM SCT023 BKN200 18/12 A3000 RMK AO2 SLP159 T01830122
KLAX 301753Z 27008KT 10SM SCT025 SCT200 20/11 A3000 RMK AO2 SLP158 T02000111 10200 20156 51002
KLAX 301853Z 26008KT 10SM SCT025 SCT200 21/12 A2999 RMK AO2 SLP155 T02110122
KLAX 301953Z 26012KT 10SM SCT025 SCT200 21/12 A2998 RMK AO2 SLP151 T02110117
KLAX 302053Z 26013KT 10SM SCT025 SCT200 21/12 A2997 RMK AO2 SLP148 T02110122 58010
KLAX 302153Z 26017KT 10SM FEW016 SCT025 BKN200 21/14 A2998 RMK AO2 SLP149 T02060139
KLAX 302253Z 25017KT 10SM FEW016 SCT025 BKN200 20/14 A2996 RMK AO2 SLP145 T02000139
KLAX 302353Z 24017KT 10SM FEW016 SCT025 BKN200 19/13 A2995 RMK AO2 SLP141 T01940128 10217 20194 58008



Page loaded:  00:37 UTC  |   05:37 PM Pacific  |   06:37 PM Mountain  |   07:37 PM Central  |   08:37 PM Eastern

 

ADVISORIES

FORECASTS

FORECASTS

OBSERVATIONS

USER TOOLS

ABOUT US